• Join FlightAware (Why Join?)
  • Login
  • US Flag 
11:48PM EDT


 

Airport Tracker/Info


-or-


 

Live Flight TrackerFlight Track Log ✈ SKW4764 ✈ 27-Oct-2013 ✈ KSLC - KMSO

Flight Track Log - Related Links

Times and Time Zones

All times are in EDT time to prevent confusion due to time zone crossing. See the SKW4764 flight status page for this flight to view local times or setup timezone preferences in your user account.

Time Position Orientation Groundspeed Altitude Reporting Facility
EDT Latitude Longitude Course Direction KTS MPH feet Rate Location/Type
05:26PM 40.7758 -111.9983 267° West 159 183 5,100  Level Salt Lake Center
05:27PM 40.7722 -112.0900 267° West 250 288 7,800 2,040 Climbing Salt Lake Center
05:28PM 40.7997 -112.1158 325° Northwest 267 307 9,100 2,580 Climbing Salt Lake Center
05:28PM 40.8347 -112.1228 351° North 282 325 10,200 1,800 Climbing Salt Lake Center
05:29PM 40.8747 -112.0922 30° Northeast 304 350 11,000 1,560 Climbing Salt Lake Center
05:30PM 40.9553 -112.0308 30° Northeast 330 380 12,900 1,920 Climbing Salt Lake Center
05:31PM 41.0406 -111.9669 29° Northeast 347 399 15,000 1,920 Climbing Salt Lake Center
05:32PM 41.1297 -111.8986 30° Northeast 360 414 16,900 1,740 Climbing Salt Lake Center
05:33PM 41.2206 -111.8289 30° Northeast 372 428 18,600 1,500 Climbing Salt Lake Center
05:34PM 41.3144 -111.7617 28° Northeast 379 436 20,100 1,620 Climbing Salt Lake Center
05:35PM 41.4347 -111.7400 North 374 430 22,000 1,500 Climbing Salt Lake Center
05:36PM 41.5353 -111.7792 344° North 378 435 23,200 1,200 Climbing Salt Lake Center
05:37PM 41.6381 -111.8192 344° North 385 443 24,500 1,080 Climbing Salt Lake Center
05:38PM 41.7422 -111.8597 344° North 392 451 25,500 900 Climbing Salt Lake Center
05:39PM 41.8469 -111.9017 343° North 393 452 26,400 780 Climbing Salt Lake Center
05:40PM 41.9558 -111.9428 344° North 402 463 27,200 840 Climbing Salt Lake Center
05:41PM 42.0875 -111.9958 343° North 410 472 28,200 780 Climbing Salt Lake Center
05:42PM 42.1972 -112.0389 344° North 412 474 28,900 660 Climbing Salt Lake Center
05:43PM 42.3092 -112.0847 343° North 419 482 29,600 720 Climbing Salt Lake Center
05:44PM 42.4217 -112.1297 344° North 421 484 30,400 780 Climbing Salt Lake Center
05:45PM 42.5344 -112.1750 344° North 421 484 31,200 720 Climbing Salt Lake Center
05:46PM 42.6464 -112.2200 344° North 420 483 31,900 360 Climbing Salt Lake Center
05:47PM 42.7739 -112.2711 344° North 424 488 32,000  Climbing Salt Lake Center
05:48PM 42.9031 -112.3239 343° North 433 498 32,000  Level Salt Lake Center
05:49PM 43.0139 -112.3697 343° North 432 497 32,000  Level Salt Lake Center
05:50PM 43.1247 -112.4150 343° North 433 498 32,000  Level Salt Lake Center
05:51PM 43.2528 -112.4681 343° North 432 497 32,000  Level Salt Lake Center
05:52PM 43.3639 -112.5131 344° North 433 498 32,000  Level Salt Lake Center
05:53PM 43.4928 -112.5672 343° North 432 497 32,000  Level Salt Lake Center
05:54PM 43.6025 -112.6128 343° North 429 494 32,000  Level Salt Lake Center
05:55PM 43.7314 -112.6656 344° North 430 495 32,000  Level Salt Lake Center
05:57PM 43.8417 -112.7131 343° North 432 497 32,000  Level Salt Lake Center
05:58PM 43.9522 -112.7603 343° North 431 496 32,000  Level Salt Lake Center
05:59PM 44.0819 -112.8156 343° North 434 499 32,000  Level Salt Lake Center
06:00PM 44.1947 -112.8636 343° North 439 505 32,000  Level Salt Lake Center
06:01PM 44.3233 -112.9189 343° North 433 498 32,000  Level Salt Lake Center
06:02PM 44.4353 -112.9681 343° North 437 503 32,000  Level Salt Lake Center
06:03PM 44.5464 -113.0156 343° North 436 502 32,000  Level Salt Lake Center
06:04PM 44.6769 -113.0725 343° North 437 503 32,000  Level Salt Lake Center
06:05PM 44.7986 -113.1256 343° North 435 501 32,000  Level Salt Lake Center
06:06PM 44.9203 -113.1794 343° North 443 510 32,000  Level Salt Lake Center
06:07PM 45.0328 -113.2286 343° North 443 510 32,000  Level Salt Lake Center
06:08PM 45.1647 -113.2875 343° North 442 509 32,000  Level Salt Lake Center
06:09PM 45.2786 -113.3381 343° North 446 513 32,000  Level Salt Lake Center
06:10PM 45.4033 -113.3944 342° North 446 513 32,000 -660 Level Salt Lake Center
06:11PM 45.5239 -113.4494 342° North 447 514 30,700 -1,860 Descending Salt Lake Center
06:12PM 45.6464 -113.5047 342° North 450 518 28,200 -2,400 Descending Salt Lake Center
06:13PM 45.7647 -113.5569 343° North 440 506 25,800 -2,400 Descending Salt Lake Center
06:14PM 45.8825 -113.6111 342° North 438 504 23,300 -2,460 Descending Salt Lake Center
06:15PM 45.9997 -113.6650 342° North 436 502 20,800 -2,400 Descending Salt Lake Center
06:16PM 46.1133 -113.7161 343° North 431 496 18,400 -2,340 Descending Salt Lake Center
06:17PM 46.2319 -113.7711 342° North 404 465 16,000 -1,860 Descending Salt Lake Center
06:18PM 46.3322 -113.8169 342° North 381 438 14,600 -1,620 Descending Salt Lake Center
06:19PM 46.4286 -113.8619 342° North 367 422 12,700 -1,980 Descending Salt Lake Center
06:20PM 46.5236 -113.9058 342° North 335 386 10,600 -1,320 Descending Salt Lake Center
06:21PM 46.6019 -113.9436 342° North 295 339 10,000 -780 Descending Salt Lake Center
06:22PM 46.6739 -113.9775 342° North 255 293 9,100 -780 Descending Salt Lake Center
06:23PM 46.7383 -114.0131 339° North 245 282 8,500 -900 Descending Salt Lake Center
06:24PM 46.7914 -114.0294 348° North 199 229 7,300 -1,440 Descending Salt Lake Center
06:25PM 46.8414 -114.0161 10° North 173 199 5,600 -1,560 Descending Salt Lake Center
06:26PM 46.8814 -114.0311 346° North 162 186 4,200 -1,080 Descending Salt Lake Center
06:27PM 46.9069 -114.0764 310° West 147 169 3,400 -780 Descending Salt Lake Center